Time;durP1;ratioP1;P1;durP2;ratioP2;P2;SDS_P1;SDS_P2;PMS_P1;PMS_P2;Temp;Humidity;BMP_temperature;BMP_pressure;BME280_temperature;BME280_humidity;BME280_pressure;Samples;Min_cycle;Max_cycle;Signal;HPM_P1;HPM_P2
2022/08/18 00:01:13;;;;;;;105.03;75.93;;;;;;;-146.58;100.00;69501.63;4991510;28;20125;-63
2022/08/18 00:03:40;;;;;;;107.35;75.68;;;;;;;-146.58;100.00;69501.63;4992624;28;20030;-62
2022/08/18 00:06:06;;;;;;;117.80;80.90;;;;;;;-146.58;100.00;69501.63;4992650;28;20469;-63
2022/08/18 00:08:31;;;;;;;118.85;79.63;;;;;;;-146.58;100.00;69501.63;4993488;28;20026;-63
2022/08/18 00:10:57;;;;;;;111.07;79.93;;;;;;;-146.58;100.00;69501.63;4991900;28;20038;-63
2022/08/18 00:13:22;;;;;;;124.20;84.00;;;;;;;-146.58;100.00;69501.63;4993058;28;20023;-63
2022/08/18 00:15:49;;;;;;;114.00;81.07;;;;;;;-146.58;100.00;69501.63;4992473;28;20046;-63
2022/08/18 00:18:14;;;;;;;110.00;76.55;;;;;;;-146.58;100.00;69501.63;4992552;28;20022;-63
2022/08/18 00:20:40;;;;;;;105.18;76.97;;;;;;;-146.58;100.00;69501.63;4991899;28;20076;-62
2022/08/18 00:23:05;;;;;;;113.55;77.20;;;;;;;-146.58;100.00;69501.63;4993422;28;20026;-62
2022/08/18 00:25:31;;;;;;;116.93;79.35;;;;;;;-146.58;100.00;69501.63;4990611;28;20046;-62
2022/08/18 00:27:56;;;;;;;103.47;77.68;;;;;;;-146.58;100.00;69501.63;4993363;28;20030;-62
2022/08/18 00:30:21;;;;;;;101.55;75.95;;;;;;;-146.58;100.00;69501.63;4991112;28;20116;-62
2022/08/18 00:32:51;;;;;;;97.47;75.22;;;;;;;-146.58;100.00;69501.63;4992793;28;20045;-60
2022/08/18 00:35:29;;;;;;;88.65;66.45;;;;;;;-146.58;100.00;69501.63;4991275;28;20120;-60
2022/08/18 00:37:56;;;;;;;90.90;72.80;;;;;;;-146.58;100.00;69501.63;4993186;28;20030;-62
2022/08/18 00:40:28;;;;;;;91.40;69.53;;;;;;;-146.58;100.00;69501.63;5003297;28;20464;-61
2022/08/18 00:42:58;;;;;;;92.60;71.10;;;;;;;-146.58;100.00;69501.63;4993696;28;20462;-61
2022/08/18 00:45:28;;;;;;;85.35;70.10;;;;;;;-146.58;100.00;69501.63;4991588;28;20034;-62
2022/08/18 00:47:53;;;;;;;89.68;68.80;;;;;;;-146.58;100.00;69501.63;4992826;28;20482;-61
2022/08/18 00:50:28;;;;;;;88.50;68.55;;;;;;;-146.58;100.00;69501.63;4991162;28;20043;-61
2022/08/18 00:53:03;;;;;;;90.88;71.32;;;;;;;-146.58;100.00;69501.63;4992441;28;20027;-62
2022/08/18 00:55:31;;;;;;;97.63;71.18;;;;;;;-146.58;100.00;69501.63;4996009;28;20038;-62
2022/08/18 00:58:05;;;;;;;94.73;69.90;;;;;;;-146.58;100.00;69501.63;4992395;28;20053;-61
2022/08/18 01:00:31;;;;;;;81.97;64.25;;;;;;;-146.58;100.00;69501.63;4991138;28;20497;-61
2022/08/18 01:03:01;;;;;;;79.60;59.42;;;;;;;-146.58;100.00;69501.63;4992818;28;20030;-62
2022/08/18 01:05:33;;;;;;;82.70;62.22;;;;;;;-146.58;100.00;69501.63;4991115;28;20046;-61
2022/08/18 01:07:59;;;;;;;79.03;61.78;;;;;;;-146.58;100.00;69501.63;4991843;28;20069;-62
2022/08/18 01:10:25;;;;;;;73.88;60.08;;;;;;;-146.58;100.00;69501.63;4990323;28;20137;-61
2022/08/18 01:12:56;;;;;;;78.68;62.33;;;;;;;-146.58;100.00;69501.63;4992761;28;20022;-62
2022/08/18 01:15:24;;;;;;;71.63;61.28;;;;;;;-146.58;100.00;69501.63;4991024;28;20042;-61
2022/08/18 01:23:37;;;;;;;70.45;56.05;;;;;;;-146.58;100.00;69501.63;4992005;28;20052;-62
2022/08/18 01:26:03;;;;;;;76.93;58.17;;;;;;;-146.58;100.00;69501.63;4990378;28;20039;-62
2022/08/18 01:28:31;;;;;;;76.20;58.58;;;;;;;-146.58;100.00;69501.63;4992096;28;20049;-62
2022/08/18 01:30:59;;;;;;;72.32;59.95;;;;;;;-146.58;100.00;69501.63;4990482;28;20429;-62
2022/08/18 01:33:32;;;;;;;71.90;56.33;;;;;;;-146.58;100.00;69501.63;4991632;28;20022;-61
2022/08/18 01:36:15;;;;;;;68.35;56.30;;;;;;;-146.58;100.00;69501.63;4990371;28;20386;-61
2022/08/18 01:38:42;;;;;;;81.57;60.03;;;;;;;-146.58;100.00;69501.63;4991959;28;20406;-61
2022/08/18 01:41:08;;;;;;;70.30;57.88;;;;;;;-146.58;100.00;69501.63;4990026;28;20035;-61
2022/08/18 01:43:35;;;;;;;75.75;61.15;;;;;;;-146.58;100.00;69501.63;4991348;28;20023;-62
2022/08/18 01:46:03;;;;;;;68.50;56.70;;;;;;;-146.58;100.00;69501.63;4990499;28;20521;-61
2022/08/18 01:48:33;;;;;;;75.20;58.45;;;;;;;-146.58;100.00;69501.63;4991257;28;20080;-62
2022/08/18 01:50:59;;;;;;;70.13;55.67;;;;;;;-146.58;100.00;69501.63;4990504;28;20759;-62
2022/08/18 01:53:26;;;;;;;76.90;59.58;;;;;;;-146.58;100.00;69501.63;4991429;28;20034;-62
2022/08/18 01:55:51;;;;;;;74.50;60.05;;;;;;;-146.58;100.00;69501.63;4979342;28;20038;-63
2022/08/18 01:58:17;;;;;;;79.80;60.35;;;;;;;-146.58;100.00;69501.63;4991688;28;20032;-63
2022/08/18 02:00:42;;;;;;;77.07;60.85;;;;;;;-146.58;100.00;69501.63;4999439;28;20034;-63
2022/08/18 02:03:11;;;;;;;77.53;60.80;;;;;;;-146.58;100.00;69501.63;4991397;28;20470;-63
2022/08/18 02:05:42;;;;;;;83.88;62.78;;;;;;;-146.58;100.00;69501.63;4970864;28;20053;-63
2022/08/18 02:08:10;;;;;;;97.03;67.22;;;;;;;-146.58;100.00;69501.63;4991912;28;20030;-63
2022/08/18 02:10:35;;;;;;;80.13;63.25;;;;;;;-146.58;100.00;69501.63;4989203;28;20069;-63
2022/08/18 02:13:00;;;;;;;80.63;62.97;;;;;;;-146.58;100.00;69501.63;4991700;28;20490;-63
2022/08/18 02:15:26;;;;;;;76.47;63.83;;;;;;;-146.58;100.00;69501.63;4991229;28;20057;-64
2022/08/18 02:17:52;;;;;;;82.00;61.08;;;;;;;-146.58;100.00;69501.63;4991415;28;20029;-62
2022/08/18 02:20:18;;;;;;;83.03;61.78;;;;;;;-146.58;100.00;69501.63;4990160;28;20410;-62
2022/08/18 02:22:44;;;;;;;85.50;67.20;;;;;;;-146.58;100.00;69501.63;4990902;28;20478;-62
2022/08/18 02:25:11;;;;;;;84.15;65.40;;;;;;;-146.58;100.00;69501.63;4989837;28;20594;-62
2022/08/18 02:27:36;;;;;;;81.78;65.50;;;;;;;-146.58;100.00;69501.63;4991106;28;20109;-62
2022/08/18 02:30:05;;;;;;;84.40;65.68;;;;;;;-146.58;100.00;69501.63;4989918;28;20057;-62
2022/08/18 02:32:31;;;;;;;82.40;63.72;;;;;;;-146.58;100.00;69501.63;4990748;28;20034;-62
2022/08/18 02:34:56;;;;;;;83.93;63.22;;;;;;;-146.58;100.00;69501.63;4990204;28;20101;-62
2022/08/18 02:37:22;;;;;;;86.70;66.10;;;;;;;-146.58;100.00;69501.63;4991174;28;20026;-62
2022/08/18 02:39:48;;;;;;;88.95;66.75;;;;;;;-146.58;100.00;69501.63;4989207;28;20588;-63
2022/08/18 02:42:14;;;;;;;96.13;69.28;;;;;;;-146.58;100.00;69501.63;4991048;28;20156;-63
2022/08/18 02:44:39;;;;;;;94.82;70.38;;;;;;;-146.58;100.00;69501.63;4989451;28;20125;-63
2022/08/18 02:47:05;;;;;;;93.45;66.35;;;;;;;-146.58;100.00;69501.63;4991107;28;20026;-61
2022/08/18 02:49:30;;;;;;;80.05;61.33;;;;;;;-146.58;100.00;69501.63;4996918;28;20060;-61
2022/08/18 02:51:56;;;;;;;85.53;67.03;;;;;;;-146.58;100.00;69501.63;4997829;28;20035;-61
2022/08/18 02:54:22;;;;;;;83.55;64.50;;;;;;;-146.58;100.00;69501.63;4992988;28;20038;-61
2022/08/18 02:56:52;;;;;;;79.88;61.97;;;;;;;-146.58;100.00;69501.63;4995016;28;20032;-62
2022/08/18 02:59:21;;;;;;;75.45;59.08;;;;;;;-146.58;100.00;69501.63;4993463;28;20129;-62
2022/08/18 03:01:50;;;;;;;76.10;56.10;;;;;;;-146.58;100.00;69501.63;4994525;28;20397;-61
2022/08/18 03:04:20;;;;;;;69.10;54.90;;;;;;;-146.58;100.00;69501.63;4992617;28;20042;-62
2022/08/18 03:06:46;;;;;;;75.20;53.85;;;;;;;-146.58;100.00;69501.63;4994862;28;20022;-62
2022/08/18 03:09:14;;;;;;;71.60;54.00;;;;;;;-146.58;100.00;69501.63;4993348;28;20040;-61
2022/08/18 03:11:41;;;;;;;65.18;52.33;;;;;;;-146.58;100.00;69501.63;4994168;28;20034;-62
2022/08/18 03:14:06;;;;;;;74.80;50.30;;;;;;;-146.58;100.00;69501.63;4993175;28;20125;-62
2022/08/18 03:16:33;;;;;;;64.40;50.28;;;;;;;-146.58;100.00;69501.63;4994083;28;20105;-62
2022/08/18 03:19:00;;;;;;;61.67;46.28;;;;;;;-146.58;100.00;69501.63;4993301;28;20026;-61
2022/08/18 03:21:28;;;;;;;64.45;48.92;;;;;;;-146.58;100.00;69501.63;4994535;28;20125;-61
2022/08/18 03:23:55;;;;;;;66.00;49.58;;;;;;;-146.58;100.00;69501.63;4992260;28;20405;-62
2022/08/18 03:26:22;;;;;;;60.80;50.00;;;;;;;-146.58;100.00;69501.63;4994403;28;20505;-63
2022/08/18 03:28:51;;;;;;;61.15;50.53;;;;;;;-146.58;100.00;69501.63;4993830;28;20113;-62
2022/08/18 03:31:19;;;;;;;66.30;49.97;;;;;;;-146.58;100.00;69501.63;4992294;28;20045;-62
2022/08/18 03:33:46;;;;;;;57.42;46.60;;;;;;;-146.58;100.00;69501.63;4993656;28;20493;-62
2022/08/18 03:36:18;;;;;;;66.97;50.72;;;;;;;-146.58;100.00;69501.63;4992419;28;20038;-62
2022/08/18 03:38:44;;;;;;;61.47;44.58;;;;;;;-146.58;100.00;69501.63;4991047;28;20022;-64
2022/08/18 03:41:12;;;;;;;61.38;49.72;;;;;;;-146.58;100.00;69501.63;4991916;28;20498;-63
2022/08/18 03:43:38;;;;;;;62.90;47.45;;;;;;;-146.58;100.00;69501.63;4993335;28;20022;-64
2022/08/18 03:46:06;;;;;;;61.95;46.85;;;;;;;-146.58;100.00;69501.63;4991870;28;20053;-61
2022/08/18 03:48:32;;;;;;;59.20;43.83;;;;;;;-146.58;100.00;69501.63;4993507;28;20478;-61
2022/08/18 03:51:08;;;;;;;59.20;44.47;;;;;;;-146.58;100.00;69501.63;4992008;28;20110;-61
2022/08/18 03:53:35;;;;;;;58.75;43.15;;;;;;;-146.58;100.00;69501.63;4993132;28;20390;-61
2022/08/18 03:56:01;;;;;;;62.75;47.83;;;;;;;-146.58;100.00;69501.63;4991838;28;20067;-62
2022/08/18 03:58:27;;;;;;;55.72;45.15;;;;;;;-146.58;100.00;69501.63;4993089;28;20113;-62
2022/08/18 04:00:53;;;;;;;56.55;44.08;;;;;;;-146.58;100.00;69501.63;4991106;28;20121;-61
2022/08/18 04:03:19;;;;;;;60.65;44.03;;;;;;;-146.58;100.00;69501.63;4993452;28;20072;-61
2022/08/18 04:05:46;;;;;;;55.50;42.10;;;;;;;-146.58;100.00;69501.63;4991604;28;20039;-61
2022/08/18 04:08:12;;;;;;;59.17;46.35;;;;;;;-146.58;100.00;69501.63;4993027;28;20105;-62
2022/08/18 04:10:38;;;;;;;55.20;40.50;;;;;;;-146.58;100.00;69501.63;4990971;28;20569;-61
2022/08/18 04:13:07;;;;;;;51.58;40.25;;;;;;;-146.58;100.00;69501.63;4992402;28;20498;-58
2022/08/18 04:15:32;;;;;;;54.80;41.70;;;;;;;-146.58;100.00;69501.63;4990806;28;20061;-65
2022/08/18 04:17:59;;;;;;;52.45;40.95;;;;;;;-146.58;100.00;69501.63;4993040;28;20595;-65
2022/08/18 04:20:24;;;;;;;56.67;40.03;;;;;;;-146.58;100.00;69501.63;4991240;28;20097;-65
2022/08/18 04:22:49;;;;;;;54.17;39.63;;;;;;;-146.58;100.00;69501.63;4992091;28;20026;-64
2022/08/18 04:25:15;;;;;;;46.58;38.92;;;;;;;-146.58;100.00;69501.63;4991723;28;20042;-64
2022/08/18 04:27:42;;;;;;;49.05;38.70;;;;;;;-146.58;100.00;69501.63;4992695;28;20509;-65
2022/08/18 04:30:08;;;;;;;43.80;38.35;;;;;;;-146.58;100.00;69501.63;4990669;28;20057;-65
2022/08/18 04:32:33;;;;;;;44.50;36.80;;;;;;;-146.58;100.00;69501.63;4989919;28;20022;-59
2022/08/18 04:34:59;;;;;;;50.45;37.85;;;;;;;-146.58;100.00;69501.63;4991067;28;20406;-60
2022/08/18 04:37:25;;;;;;;53.83;40.88;;;;;;;-146.58;100.00;69501.63;4992037;28;20022;-60
2022/08/18 04:39:50;;;;;;;43.35;37.45;;;;;;;-146.58;100.00;69501.63;4991097;28;20053;-59
2022/08/18 04:42:16;;;;;;;48.65;37.63;;;;;;;-146.58;100.00;69501.63;4992171;28;20026;-59
2022/08/18 04:44:41;;;;;;;56.10;43.00;;;;;;;-146.58;100.00;69501.63;4990492;28;20387;-58
2022/08/18 04:47:08;;;;;;;45.65;37.30;;;;;;;-146.58;100.00;69501.63;4992181;28;20030;-59
2022/08/18 04:49:33;;;;;;;42.20;36.05;;;;;;;-146.58;100.00;69501.63;4990965;28;20116;-59
2022/08/18 04:54:42;;;;;;;47.05;36.33;;;;;;;-146.58;100.00;69501.63;4989465;28;20092;-59
2022/08/18 04:57:17;;;;;;;43.55;35.92;;;;;;;-146.58;100.00;69501.63;4992382;28;20030;-59
2022/08/18 04:59:45;;;;;;;52.03;38.58;;;;;;;-146.58;100.00;69501.63;4988962;28;20035;-59
2022/08/18 05:02:11;;;;;;;47.10;37.47;;;;;;;-146.58;100.00;69501.63;4992246;28;20023;-59
2022/08/18 05:04:39;;;;;;;43.38;33.22;;;;;;;-146.58;100.00;69501.63;4990837;28;20101;-59
2022/08/18 05:07:06;;;;;;;46.33;34.35;;;;;;;-146.58;100.00;69501.63;4991838;28;20026;-59
2022/08/18 05:09:33;;;;;;;37.83;31.05;;;;;;;-146.58;100.00;69501.63;4990469;28;20050;-59
2022/08/18 05:12:00;;;;;;;38.30;31.33;;;;;;;-146.58;100.00;69501.63;4991645;28;20385;-59
2022/08/18 05:14:26;;;;;;;38.25;32.97;;;;;;;-146.58;100.00;69501.63;4989842;28;20054;-60
2022/08/18 05:16:51;;;;;;;38.85;31.42;;;;;;;-146.58;100.00;69501.63;4992076;28;20022;-59
2022/08/18 05:19:21;;;;;;;37.83;31.90;;;;;;;-146.58;100.00;69501.63;4990760;28;20520;-59
2022/08/18 05:21:46;;;;;;;34.20;29.88;;;;;;;-146.58;100.00;69501.63;4991881;28;20113;-59
2022/08/18 05:24:11;;;;;;;33.30;28.88;;;;;;;-146.58;100.00;69501.63;4990527;28;20057;-59
2022/08/18 05:26:39;;;;;;;34.55;26.77;;;;;;;-146.58;100.00;69501.63;4991744;28;20033;-59
2022/08/18 05:29:04;;;;;;;38.70;30.95;;;;;;;-146.58;100.00;69501.63;4990228;28;20073;-59
2022/08/18 05:31:31;;;;;;;30.52;27.15;;;;;;;-146.58;100.00;69501.63;4991673;28;20018;-59
2022/08/18 05:33:57;;;;;;;29.52;26.35;;;;;;;-146.58;100.00;69501.63;4990607;28;20026;-59
2022/08/18 05:36:42;;;;;;;37.47;27.17;;;;;;;-146.58;100.00;69501.63;4991339;28;20022;-59
2022/08/18 05:39:16;;;;;;;29.38;26.20;;;;;;;-146.58;100.00;69501.63;4989745;28;20018;-59
2022/08/18 05:42:12;;;;;;;31.33;26.80;;;;;;;-146.58;100.00;69501.63;4991471;28;20065;-59
2022/08/18 05:44:46;;;;;;;32.38;25.77;;;;;;;-146.58;100.00;69501.63;4987803;28;20509;-59
2022/08/18 05:47:18;;;;;;;34.30;29.48;;;;;;;-146.58;100.00;69501.63;4988751;28;20026;-58
2022/08/18 05:49:47;;;;;;;31.85;26.92;;;;;;;-146.58;100.00;69501.63;4989975;28;20037;-59
2022/08/18 05:52:21;;;;;;;35.55;26.83;;;;;;;-146.58;100.00;69501.63;4988746;28;20026;-59
2022/08/18 05:57:51;;;;;;;29.50;25.98;;;;;;;-146.58;100.00;69501.63;4990457;28;20110;-60
2022/08/18 06:00:22;;;;;;;30.77;27.73;;;;;;;-146.58;100.00;69501.63;4990486;28;20421;-59
2022/08/18 06:03:03;;;;;;;35.08;28.83;;;;;;;-146.58;100.00;69501.63;4992091;28;20034;-60
2022/08/18 06:05:40;;;;;;;34.75;27.90;;;;;;;-146.58;100.00;69501.63;4989702;28;20480;-56
2022/08/18 06:08:12;;;;;;;35.42;27.25;;;;;;;-146.58;100.00;69501.63;4991728;28;20106;-58
2022/08/18 06:10:42;;;;;;;29.33;25.80;;;;;;;-146.58;100.00;69501.63;4990128;28;20517;-59
2022/08/18 06:13:09;;;;;;;32.78;28.40;;;;;;;-146.58;100.00;69501.63;4991307;28;20019;-59
2022/08/18 06:15:34;;;;;;;32.08;27.48;;;;;;;-146.58;100.00;69501.63;4989043;28;20041;-58
2022/08/18 06:18:10;;;;;;;32.40;27.45;;;;;;;-146.58;100.00;69501.63;4990138;28;20025;-59
2022/08/18 06:21:16;;;;;;;37.80;27.42;;;;;;;-146.58;100.00;69501.63;4989642;28;20038;-58
2022/08/18 06:24:02;;;;;;;33.85;29.83;;;;;;;-146.58;100.00;69501.63;4991935;28;20041;-59
2022/08/18 06:26:44;;;;;;;30.65;26.95;;;;;;;-146.58;100.00;69501.63;4974972;28;20462;-59
2022/08/18 06:29:30;;;;;;;33.75;30.05;;;;;;;-146.58;100.00;69501.63;4977311;28;20459;-59
2022/08/18 06:32:16;;;;;;;33.72;29.17;;;;;;;-146.58;100.00;69501.63;4995494;28;20036;-59
2022/08/18 06:35:07;;;;;;;44.75;31.17;;;;;;;-146.58;100.00;69501.63;4993955;28;20042;-59
2022/08/18 06:38:37;;;;;;;36.28;30.92;;;;;;;-146.58;100.00;69501.63;4995312;28;20070;-59
2022/08/18 06:40:26;;;;;;;36.92;31.58;;;;;;;-146.58;100.00;69501.63;4993758;28;20050;-59
2022/08/18 06:42:52;;;;;;;32.58;28.90;;;;;;;-146.58;100.00;69501.63;4995226;28;20081;-59
2022/08/18 06:45:22;;;;;;;34.78;30.90;;;;;;;-146.58;100.00;69501.63;4993893;28;20046;-59
2022/08/18 06:47:58;;;;;;;36.63;27.77;;;;;;;-146.58;100.00;69501.63;4995325;28;20085;-59
2022/08/18 06:50:35;;;;;;;35.20;29.83;;;;;;;-146.58;100.00;69501.63;4993256;28;20062;-58
2022/08/18 06:53:06;;;;;;;41.97;30.85;;;;;;;-146.58;100.00;69501.63;4995308;28;20061;-59
2022/08/18 06:55:47;;;;;;;33.42;28.35;;;;;;;-146.58;100.00;69501.63;4993349;28;20043;-59
2022/08/18 06:58:15;;;;;;;31.25;27.38;;;;;;;-146.58;100.00;69501.63;4994685;28;20264;-59
2022/08/18 07:00:51;;;;;;;32.03;26.27;;;;;;;-146.58;100.00;69501.63;4992184;28;20042;-58
2022/08/18 07:03:21;;;;;;;31.63;26.02;;;;;;;-146.58;100.00;69501.63;4994766;28;20026;-58
2022/08/18 07:05:58;;;;;;;30.73;27.48;;;;;;;-146.58;100.00;69501.63;4992812;28;20045;-58
2022/08/18 07:08:41;;;;;;;35.47;24.92;;;;;;;-146.58;100.00;69501.63;4994327;28;20049;-59
2022/08/18 07:11:29;;;;;;;28.23;25.30;;;;;;;-146.58;100.00;69501.63;4993055;28;20145;-58
2022/08/18 07:14:10;;;;;;;29.40;23.23;;;;;;;-146.58;100.00;69501.63;4997204;28;20481;-59
2022/08/18 07:16:36;;;;;;;27.75;24.55;;;;;;;-146.58;100.00;69501.63;5014004;28;20036;-58
2022/08/18 07:19:19;;;;;;;29.38;23.05;;;;;;;-146.58;100.00;69501.63;5002663;28;20394;-59
2022/08/18 07:21:45;;;;;;;37.10;24.88;;;;;;;-146.58;100.00;69501.63;4994794;28;20080;-58
2022/08/18 07:24:33;;;;;;;30.80;21.88;;;;;;;-146.58;100.00;69501.63;4991974;28;20522;-59
2022/08/18 07:27:12;;;;;;;23.77;21.25;;;;;;;-146.58;100.00;69501.63;4994218;28;20081;-59
2022/08/18 07:29:58;;;;;;;32.22;21.42;;;;;;;-146.58;100.00;69501.63;4993057;28;20054;-58
2022/08/18 07:32:33;;;;;;;27.85;21.40;;;;;;;-146.58;100.00;69501.63;4974915;28;20479;-59
2022/08/18 07:35:03;;;;;;;38.13;23.25;;;;;;;-146.58;100.00;69501.63;4972696;28;20633;-59
2022/08/18 07:37:40;;;;;;;23.92;20.67;;;;;;;-146.58;100.00;69501.63;4974946;28;20030;-59
2022/08/18 07:40:26;;;;;;;23.42;20.08;;;;;;;-146.58;100.00;69501.63;4973666;28;20461;-59
2022/08/18 07:42:59;;;;;;;25.73;20.35;;;;;;;-146.58;100.00;69501.63;4974614;28;20069;-59
2022/08/18 07:45:43;;;;;;;21.88;18.58;;;;;;;-146.58;100.00;69501.63;4973237;28;20035;-59
2022/08/18 07:48:13;;;;;;;24.98;19.40;;;;;;;-146.58;100.00;69501.63;4975076;28;20466;-59
2022/08/18 07:50:47;;;;;;;26.77;19.30;;;;;;;-146.58;100.00;69501.63;4985680;28;20047;-58
2022/08/18 07:53:32;;;;;;;21.17;17.60;;;;;;;-146.58;100.00;69501.63;4994176;28;20072;-58
2022/08/18 07:56:03;;;;;;;21.33;17.40;;;;;;;-146.58;100.00;69501.63;4992707;28;20121;-58
2022/08/18 07:59:25;;;;;;;27.50;19.27;;;;;;;-146.58;100.00;69501.63;4993520;28;20117;-58
2022/08/18 08:02:27;;;;;;;23.60;17.67;;;;;;;-146.58;100.00;69501.63;4946415;29;20043;-58
2022/08/18 08:05:37;;;;;;;21.67;17.80;;;;;;;-146.58;100.00;69501.63;4950260;29;20039;-58
2022/08/18 08:08:10;;;;;;;22.20;18.17;;;;;;;-146.58;100.00;69501.63;4993331;28;20038;-58
2022/08/18 08:10:44;;;;;;;19.30;17.00;;;;;;;-146.58;100.00;69501.63;4989319;28;20502;-58
2022/08/18 08:13:47;;;;;;;18.60;16.70;;;;;;;-146.58;100.00;69501.63;4993089;28;20053;-58
2022/08/18 08:16:34;;;;;;;19.90;17.63;;;;;;;-146.58;100.00;69501.63;4991979;28;20046;-58
2022/08/18 08:19:09;;;;;;;22.13;15.43;;;;;;;-146.58;100.00;69501.63;4988888;28;20145;-58
2022/08/18 08:21:43;;;;;;;20.23;16.40;;;;;;;-146.58;100.00;69501.63;4977854;28;20516;-59
2022/08/18 08:24:16;;;;;;;20.13;16.52;;;;;;;-146.58;100.00;69501.63;4992550;28;20105;-58
2022/08/18 08:27:08;;;;;;;19.45;16.50;;;;;;;-146.58;100.00;69501.63;4992929;28;20084;-58
2022/08/18 08:30:08;;;;;;;17.95;16.05;;;;;;;-146.58;100.00;69501.63;4976314;28;20140;-58
2022/08/18 08:32:57;;;;;;;18.08;16.13;;;;;;;-146.58;100.00;69501.63;4992987;28;20030;-59
2022/08/18 08:35:36;;;;;;;18.80;15.82;;;;;;;-146.58;100.00;69501.63;4990994;28;20448;-59
2022/08/18 08:38:09;;;;;;;19.70;14.23;;;;;;;-146.58;100.00;69501.63;4993356;28;20433;-58
2022/08/18 08:40:42;;;;;;;18.95;13.43;;;;;;;-146.58;100.00;69501.63;4991856;28;20046;-58
2022/08/18 08:43:14;;;;;;;15.50;13.57;;;;;;;-146.58;100.00;69501.63;4990217;28;20187;-58
2022/08/18 08:45:54;;;;;;;16.27;14.18;;;;;;;-146.58;100.00;69501.63;4991426;28;20038;-58
2022/08/18 08:48:24;;;;;;;14.25;12.75;;;;;;;-146.58;100.00;69501.63;4992214;28;20038;-59
2022/08/18 08:50:57;;;;;;;18.95;13.05;;;;;;;-146.58;100.00;69501.63;4988624;28;20045;-58
2022/08/18 08:53:32;;;;;;;14.82;13.23;;;;;;;-146.58;100.00;69501.63;4993013;28;20041;-58
2022/08/18 08:56:05;;;;;;;21.30;14.80;;;;;;;-146.58;100.00;69501.63;4991071;28;20501;-58
2022/08/18 08:58:39;;;;;;;20.55;14.48;;;;;;;-146.58;100.00;69501.63;4995722;28;20034;-58
2022/08/18 09:01:09;;;;;;;18.20;15.88;;;;;;;19.80;100.00;165747.69;5010360;28;20045;-59
2022/08/18 09:04:00;;;;;;;25.02;15.48;;;;;;;21.22;100.00;166122.47;5004647;28;20022;-58
2022/08/18 09:06:40;;;;;;;17.60;15.38;;;;;;;21.41;100.00;166171.31;4991325;28;20113;-58
2022/08/18 09:09:26;;;;;;;15.07;12.77;;;;;;;21.65;100.00;166233.84;4991500;28;20481;-58
2022/08/18 09:12:25;;;;;;;16.17;13.73;;;;;;;21.74;100.00;166258.31;4992180;28;20369;-58
2022/08/18 09:14:55;;;;;;;15.27;12.40;;;;;;;21.56;100.00;166210.72;4999346;28;20073;-58
2022/08/18 09:17:44;;;;;;;15.85;14.20;;;;;;;21.62;100.00;166225.75;5012108;28;20024;-58
2022/08/18 09:20:39;;;;;;;16.00;12.93;;;;;;;21.99;100.00;166324.88;5010897;28;20042;-58
2022/08/18 09:23:10;;;;;;;18.30;12.55;;;;;;;22.21;100.00;166381.94;5012101;28;20110;-58
2022/08/18 09:25:40;;;;;;;19.00;12.75;;;;;;;22.41;100.00;166435.00;5010074;28;20038;-58
2022/08/18 09:28:28;;;;;;;15.30;13.70;;;;;;;22.75;100.00;166523.31;4996866;28;20034;-58
2022/08/18 09:31:05;;;;;;;15.50;11.98;;;;;;;23.11;100.00;166618.47;4990870;28;20414;-59
2022/08/18 09:33:39;;;;;;;13.90;10.37;;;;;;;22.97;100.00;166581.78;4991842;28;20033;-59
2022/08/18 09:36:33;;;;;;;11.77;9.93;;;;;;;22.38;100.00;166426.75;4990993;28;20056;-58
2022/08/18 09:42:08;;;;;;;10.60;9.13;;;;;;;22.53;100.00;166464.88;4991944;28;20069;-59
2022/08/18 09:44:40;;;;;;;15.63;9.02;;;;;;;22.62;100.00;166489.34;4971171;28;20031;-58
2022/08/18 09:47:06;;;;;;;8.88;7.97;;;;;;;22.76;100.00;166526.06;4972721;28;20035;-58
2022/08/18 09:50:04;;;;;;;10.20;8.68;;;;;;;23.11;100.00;166619.84;4970726;28;20035;-58
2022/08/18 09:52:32;;;;;;;14.27;9.90;;;;;;;23.61;100.00;166750.38;4971685;28;20105;-58
2022/08/18 09:54:57;;;;;;;;;;;;;;;23.97;100.00;166845.63;4971455;28;20131;-58
2022/08/18 09:57:34;;;;;;;15.43;10.57;;;;;;;23.65;100.00;166761.25;4972298;28;20349;-59
2022/08/18 10:00:02;;;;;;;10.43;8.05;;;;;;;23.65;100.00;166761.25;4971003;28;20050;-58
2022/08/18 10:02:27;;;;;;;12.70;8.48;;;;;;;23.60;100.00;166747.66;4974875;28;20029;-58
2022/08/18 10:05:24;;;;;;;12.63;9.82;;;;;;;23.29;100.00;166666.09;4990313;28;20121;-58
2022/08/18 10:08:15;;;;;;;13.03;8.87;;;;;;;23.17;100.00;166633.41;4991394;28;20363;-58
2022/08/18 10:10:53;;;;;;;15.50;8.18;;;;;;;22.85;100.00;166550.53;4970332;28;20370;-58
2022/08/18 10:13:37;;;;;;;12.02;9.00;;;;;;;22.73;100.00;166519.25;4990581;28;20089;-58
2022/08/18 10:16:41;;;;;;;12.70;8.98;;;;;;;22.57;100.00;166477.09;4990203;28;20418;-58
2022/08/18 10:19:28;;;;;;;13.35;8.65;;;;;;;22.41;100.00;166435.00;4991502;28;20023;-58
2022/08/18 10:22:00;;;;;;;16.75;10.20;;;;;;;22.45;100.00;166444.50;4989959;28;20065;-58
2022/08/18 10:24:53;;;;;;;11.00;8.07;;;;;;;22.29;100.00;166402.34;4989145;28;20042;-58
2022/08/18 10:27:43;;;;;;;13.57;9.05;;;;;;;22.09;100.00;166350.69;4991299;28;20030;-58
2022/08/18 10:30:31;;;;;;;16.27;7.65;;;;;;;22.02;100.00;166331.66;4990135;28;20042;-58
2022/08/18 10:32:56;;;;;;;12.13;9.95;;;;;;;22.01;100.00;166328.94;4991318;28;20101;-57
2022/08/18 10:35:34;;;;;;;11.30;7.63;;;;;;;21.99;100.00;166323.53;4989609;28;20632;-58
2022/08/18 10:38:04;;;;;;;8.70;7.80;;;;;;;22.02;100.00;166331.66;4990967;28;20037;-58
2022/08/18 10:40:32;;;;;;;7.28;6.43;;;;;;;22.10;100.00;166352.06;4989367;28;20050;-58
2022/08/18 10:43:08;;;;;;;8.00;7.20;;;;;;;22.23;100.00;166386.06;4991419;28;20385;-58
2022/08/18 10:45:37;;;;;;;10.05;6.80;;;;;;;22.32;100.00;166410.47;4989347;28;20501;-58
2022/08/18 10:48:21;;;;;;;;;;;;;;;22.44;100.00;166443.16;4991220;28;20634;-57
2022/08/18 10:50:50;;;;;;;9.52;6.50;;;;;;;22.63;100.00;166492.06;4990040;28;20009;-58
2022/08/18 10:53:29;;;;;;;5.60;4.97;;;;;;;22.82;100.00;166542.34;4991498;28;20489;-58
2022/08/18 10:56:04;;;;;;;7.22;5.00;;;;;;;22.96;100.00;166579.06;4989549;28;20421;-58
2022/08/18 10:58:53;;;;;;;8.98;5.30;;;;;;;23.10;100.00;166617.13;4990986;28;20030;-58
2022/08/18 11:01:25;;;;;;;6.32;4.78;;;;;;;23.16;100.00;166630.69;4970478;28;20074;-58
2022/08/18 11:04:00;;;;;;;7.03;4.68;;;;;;;23.23;100.00;166651.13;4972034;28;20034;-58
2022/08/18 11:06:26;;;;;;;7.05;4.75;;;;;;;23.32;100.00;166674.25;4970298;28;20043;-57
2022/08/18 11:08:58;;;;;;;6.20;3.95;;;;;;;23.50;100.00;166720.44;4970598;28;20023;-57
2022/08/18 11:11:42;;;;;;;7.20;5.82;;;;;;;23.60;100.00;166749.00;4974515;28;20035;-58
2022/08/18 11:14:26;;;;;;;10.50;5.40;;;;;;;23.84;100.00;166810.22;4974241;28;20105;-58
2022/08/18 11:17:15;;;;;;;8.45;4.18;;;;;;;23.75;100.00;166788.44;4975279;28;20037;-58
2022/08/18 11:19:43;;;;;;;7.00;5.20;;;;;;;23.99;100.00;166851.06;4973559;28;20045;-58
2022/08/18 11:22:33;;;;;;;7.95;6.15;;;;;;;23.81;100.00;166802.03;4975418;28;20513;-58
2022/08/18 11:25:02;;;;;;;32.00;5.40;;;;;;;23.91;100.00;166829.25;4973666;28;20043;-58
2022/08/18 11:27:31;;;;;;;9.27;6.18;;;;;;;24.26;100.00;166921.75;4974959;28;20042;-58
2022/08/18 11:30:02;;;;;;;12.20;5.20;;;;;;;24.11;100.00;166880.97;4971546;28;20078;-58
2022/08/18 11:32:34;;;;;;;9.48;5.68;;;;;;;24.18;100.00;166901.38;4984414;28;20045;-58
2022/08/18 11:35:04;;;;;;;16.40;6.10;;;;;;;24.29;100.00;166929.94;4992671;28;20046;-58
2022/08/18 11:37:52;;;;;;;7.97;4.68;;;;;;;24.26;100.00;166921.75;4972296;28;20478;-58